sensor_id;sensor_type;location;lat;lon;timestamp;temperature;humidity
43695;DHT22;29300;43.560;1.294;2022-10-13T00:00:44;15.00;99.90
43695;DHT22;29300;43.560;1.294;2022-10-13T00:03:10;14.90;99.90
43695;DHT22;29300;43.560;1.294;2022-10-13T00:05:41;14.70;99.90
43695;DHT22;29300;43.560;1.294;2022-10-13T00:08:07;14.80;99.90
43695;DHT22;29300;43.560;1.294;2022-10-13T00:10:36;14.90;99.90
43695;DHT22;29300;43.560;1.294;2022-10-13T00:13:03;14.90;99.90
43695;DHT22;29300;43.560;1.294;2022-10-13T00:15:29;14.90;99.90
43695;DHT22;29300;43.560;1.294;2022-10-13T00:17:55;15.00;99.90
43695;DHT22;29300;43.560;1.294;2022-10-13T00:20:20;15.00;99.90
43695;DHT22;29300;43.560;1.294;2022-10-13T00:22:46;14.90;99.90
43695;DHT22;29300;43.560;1.294;2022-10-13T00:25:12;14.90;99.90
43695;DHT22;29300;43.560;1.294;2022-10-13T00:27:37;14.90;99.90
43695;DHT22;29300;43.560;1.294;2022-10-13T00:30:03;14.80;99.90
43695;DHT22;29300;43.560;1.294;2022-10-13T00:32:29;14.50;99.90
43695;DHT22;29300;43.560;1.294;2022-10-13T00:34:55;14.50;99.90
43695;DHT22;29300;43.560;1.294;2022-10-13T00:37:22;14.50;99.90
43695;DHT22;29300;43.560;1.294;2022-10-13T00:39:48;14.60;99.90
43695;DHT22;29300;43.560;1.294;2022-10-13T00:42:14;14.60;99.90
43695;DHT22;29300;43.560;1.294;2022-10-13T00:48:00;14.70;99.90
43695;DHT22;29300;43.560;1.294;2022-10-13T00:50:35;14.60;99.90
43695;DHT22;29300;43.560;1.294;2022-10-13T00:53:02;14.60;99.90
43695;DHT22;29300;43.560;1.294;2022-10-13T00:55:31;14.50;99.90
43695;DHT22;29300;43.560;1.294;2022-10-13T00:58:00;14.50;99.90
43695;DHT22;29300;43.560;1.294;2022-10-13T01:00:27;14.40;99.90
43695;DHT22;29300;43.560;1.294;2022-10-13T01:02:52;14.60;99.90
43695;DHT22;29300;43.560;1.294;2022-10-13T01:05:19;14.60;99.90
43695;DHT22;29300;43.560;1.294;2022-10-13T01:07:47;14.70;99.90
43695;DHT22;29300;43.560;1.294;2022-10-13T01:10:16;14.70;99.90
43695;DHT22;29300;43.560;1.294;2022-10-13T01:13:00;14.70;99.90
43695;DHT22;29300;43.560;1.294;2022-10-13T01:15:36;14.70;99.90
43695;DHT22;29300;43.560;1.294;2022-10-13T01:24:05;14.20;99.90
43695;DHT22;29300;43.560;1.294;2022-10-13T01:34:55;14.40;99.90
43695;DHT22;29300;43.560;1.294;2022-10-13T01:37:37;14.40;99.90
43695;DHT22;29300;43.560;1.294;2022-10-13T01:40:17;14.40;99.90
43695;DHT22;29300;43.560;1.294;2022-10-13T01:43:10;14.50;99.90
43695;DHT22;29300;43.560;1.294;2022-10-13T01:45:41;14.50;99.90
43695;DHT22;29300;43.560;1.294;2022-10-13T01:48:10;14.60;99.90
43695;DHT22;29300;43.560;1.294;2022-10-13T01:50:36;14.50;99.90
43695;DHT22;29300;43.560;1.294;2022-10-13T01:53:04;14.40;99.90
43695;DHT22;29300;43.560;1.294;2022-10-13T01:55:30;14.40;99.90
43695;DHT22;29300;43.560;1.294;2022-10-13T01:57:56;14.40;99.90
43695;DHT22;29300;43.560;1.294;2022-10-13T02:00:22;14.40;99.90
43695;DHT22;29300;43.560;1.294;2022-10-13T02:03:00;14.20;99.90
43695;DHT22;29300;43.560;1.294;2022-10-13T02:05:44;14.10;99.90
43695;DHT22;29300;43.560;1.294;2022-10-13T02:10:53;14.10;99.90
43695;DHT22;29300;43.560;1.294;2022-10-13T02:13:24;14.00;99.90
43695;DHT22;29300;43.560;1.294;2022-10-13T02:15:54;14.10;99.90
43695;DHT22;29300;43.560;1.294;2022-10-13T02:18:25;14.10;99.90
43695;DHT22;29300;43.560;1.294;2022-10-13T02:20:51;14.00;99.90
43695;DHT22;29300;43.560;1.294;2022-10-13T02:23:18;13.90;99.90
43695;DHT22;29300;43.560;1.294;2022-10-13T02:25:46;13.80;99.90
43695;DHT22;29300;43.560;1.294;2022-10-13T02:28:12;13.90;99.90
43695;DHT22;29300;43.560;1.294;2022-10-13T02:30:40;14.00;99.90
43695;DHT22;29300;43.560;1.294;2022-10-13T02:33:06;14.00;99.90
43695;DHT22;29300;43.560;1.294;2022-10-13T02:35:33;13.90;99.90
43695;DHT22;29300;43.560;1.294;2022-10-13T02:37:59;13.80;99.90
43695;DHT22;29300;43.560;1.294;2022-10-13T02:40:25;13.80;99.90
43695;DHT22;29300;43.560;1.294;2022-10-13T02:42:51;13.90;99.90
43695;DHT22;29300;43.560;1.294;2022-10-13T02:45:17;14.00;99.90
43695;DHT22;29300;43.560;1.294;2022-10-13T02:47:43;14.00;99.90
43695;DHT22;29300;43.560;1.294;2022-10-13T02:50:09;14.10;99.90
43695;DHT22;29300;43.560;1.294;2022-10-13T02:52:35;14.10;99.90
43695;DHT22;29300;43.560;1.294;2022-10-13T02:55:01;14.10;99.90
43695;DHT22;29300;43.560;1.294;2022-10-13T02:57:27;14.10;99.90
43695;DHT22;29300;43.560;1.294;2022-10-13T02:59:52;14.10;99.90
43695;DHT22;29300;43.560;1.294;2022-10-13T03:02:18;14.00;99.90
43695;DHT22;29300;43.560;1.294;2022-10-13T03:04:44;13.90;99.90
43695;DHT22;29300;43.560;1.294;2022-10-13T03:07:10;13.90;99.90
43695;DHT22;29300;43.560;1.294;2022-10-13T03:09:36;13.90;99.90
43695;DHT22;29300;43.560;1.294;2022-10-13T03:12:01;13.70;99.90
43695;DHT22;29300;43.560;1.294;2022-10-13T03:14:27;13.60;99.90
43695;DHT22;29300;43.560;1.294;2022-10-13T03:16:53;13.70;99.90
43695;DHT22;29300;43.560;1.294;2022-10-13T03:19:19;13.90;99.90
43695;DHT22;29300;43.560;1.294;2022-10-13T03:21:44;13.90;99.90
43695;DHT22;29300;43.560;1.294;2022-10-13T03:24:10;14.00;99.90
43695;DHT22;29300;43.560;1.294;2022-10-13T03:26:36;14.00;99.90
43695;DHT22;29300;43.560;1.294;2022-10-13T03:29:02;14.00;99.90
43695;DHT22;29300;43.560;1.294;2022-10-13T03:31:28;13.90;99.90
43695;DHT22;29300;43.560;1.294;2022-10-13T03:33:53;13.90;99.90
43695;DHT22;29300;43.560;1.294;2022-10-13T03:36:19;14.00;99.90
43695;DHT22;29300;43.560;1.294;2022-10-13T03:38:45;14.00;99.90
43695;DHT22;29300;43.560;1.294;2022-10-13T03:41:12;13.90;99.90
43695;DHT22;29300;43.560;1.294;2022-10-13T03:43:39;13.90;99.90
43695;DHT22;29300;43.560;1.294;2022-10-13T03:46:06;14.00;99.90
43695;DHT22;29300;43.560;1.294;2022-10-13T03:48:33;13.90;99.90
43695;DHT22;29300;43.560;1.294;2022-10-13T03:51:02;13.90;99.90
43695;DHT22;29300;43.560;1.294;2022-10-13T03:53:28;13.90;99.90
43695;DHT22;29300;43.560;1.294;2022-10-13T03:55:55;13.90;99.90
43695;DHT22;29300;43.560;1.294;2022-10-13T03:58:23;14.00;99.90
43695;DHT22;29300;43.560;1.294;2022-10-13T04:00:49;13.80;99.90
43695;DHT22;29300;43.560;1.294;2022-10-13T04:03:16;13.90;99.90
43695;DHT22;29300;43.560;1.294;2022-10-13T04:05:42;13.90;99.90
43695;DHT22;29300;43.560;1.294;2022-10-13T04:08:08;13.90;99.90
43695;DHT22;29300;43.560;1.294;2022-10-13T04:10:33;14.00;99.90
43695;DHT22;29300;43.560;1.294;2022-10-13T04:12:59;14.00;99.90
43695;DHT22;29300;43.560;1.294;2022-10-13T04:15:25;14.10;99.90
43695;DHT22;29300;43.560;1.294;2022-10-13T04:17:51;14.00;99.90
43695;DHT22;29300;43.560;1.294;2022-10-13T04:20:17;14.00;99.90
43695;DHT22;29300;43.560;1.294;2022-10-13T04:22:43;14.00;99.90
43695;DHT22;29300;43.560;1.294;2022-10-13T04:25:09;14.00;99.90
43695;DHT22;29300;43.560;1.294;2022-10-13T04:27:35;14.00;99.90
43695;DHT22;29300;43.560;1.294;2022-10-13T04:30:07;13.90;99.90
43695;DHT22;29300;43.560;1.294;2022-10-13T04:32:33;13.90;99.90
43695;DHT22;29300;43.560;1.294;2022-10-13T04:34:59;13.90;99.90
43695;DHT22;29300;43.560;1.294;2022-10-13T04:37:25;13.90;99.90
43695;DHT22;29300;43.560;1.294;2022-10-13T04:39:50;14.00;99.90
43695;DHT22;29300;43.560;1.294;2022-10-13T04:42:16;14.10;99.90
43695;DHT22;29300;43.560;1.294;2022-10-13T04:44:42;14.00;99.90
43695;DHT22;29300;43.560;1.294;2022-10-13T04:47:07;13.90;99.90
43695;DHT22;29300;43.560;1.294;2022-10-13T04:49:33;13.90;99.90
43695;DHT22;29300;43.560;1.294;2022-10-13T04:51:59;13.90;99.90
43695;DHT22;29300;43.560;1.294;2022-10-13T04:54:25;13.90;99.90
43695;DHT22;29300;43.560;1.294;2022-10-13T04:56:50;13.90;99.90
43695;DHT22;29300;43.560;1.294;2022-10-13T04:59:16;14.00;99.90
43695;DHT22;29300;43.560;1.294;2022-10-13T05:01:42;13.90;99.90
43695;DHT22;29300;43.560;1.294;2022-10-13T05:04:09;14.00;99.90
43695;DHT22;29300;43.560;1.294;2022-10-13T05:06:38;14.00;99.90
43695;DHT22;29300;43.560;1.294;2022-10-13T05:09:04;14.00;99.90
43695;DHT22;29300;43.560;1.294;2022-10-13T05:11:30;13.90;99.90
43695;DHT22;29300;43.560;1.294;2022-10-13T05:13:56;13.90;99.90
43695;DHT22;29300;43.560;1.294;2022-10-13T05:16:23;13.90;99.90
43695;DHT22;29300;43.560;1.294;2022-10-13T05:18:50;13.90;99.90
43695;DHT22;29300;43.560;1.294;2022-10-13T05:21:22;13.90;99.90
43695;DHT22;29300;43.560;1.294;2022-10-13T05:23:49;13.90;99.90
43695;DHT22;29300;43.560;1.294;2022-10-13T05:26:18;13.90;99.90
43695;DHT22;29300;43.560;1.294;2022-10-13T05:28:44;13.80;99.90
43695;DHT22;29300;43.560;1.294;2022-10-13T05:33:41;13.90;99.90
43695;DHT22;29300;43.560;1.294;2022-10-13T05:36:09;13.90;99.90
43695;DHT22;29300;43.560;1.294;2022-10-13T05:38:35;13.80;99.90
43695;DHT22;29300;43.560;1.294;2022-10-13T05:41:12;13.70;99.90
43695;DHT22;29300;43.560;1.294;2022-10-13T05:43:39;13.80;99.90
43695;DHT22;29300;43.560;1.294;2022-10-13T05:46:06;13.80;99.90
43695;DHT22;29300;43.560;1.294;2022-10-13T05:48:32;13.90;99.90
43695;DHT22;29300;43.560;1.294;2022-10-13T05:51:00;13.90;99.90
43695;DHT22;29300;43.560;1.294;2022-10-13T05:53:33;14.00;99.90
43695;DHT22;29300;43.560;1.294;2022-10-13T05:56:05;14.00;99.90
43695;DHT22;29300;43.560;1.294;2022-10-13T05:58:38;13.90;99.90
43695;DHT22;29300;43.560;1.294;2022-10-13T06:01:07;13.70;99.90
43695;DHT22;29300;43.560;1.294;2022-10-13T06:03:34;13.80;99.90
43695;DHT22;29300;43.560;1.294;2022-10-13T06:06:00;13.80;99.90
43695;DHT22;29300;43.560;1.294;2022-10-13T06:08:26;13.90;99.90
43695;DHT22;29300;43.560;1.294;2022-10-13T06:10:53;13.90;99.90
43695;DHT22;29300;43.560;1.294;2022-10-13T06:13:19;13.80;99.90
43695;DHT22;29300;43.560;1.294;2022-10-13T06:15:45;13.80;99.90
43695;DHT22;29300;43.560;1.294;2022-10-13T06:18:10;14.00;99.90
43695;DHT22;29300;43.560;1.294;2022-10-13T06:20:36;14.00;99.90
43695;DHT22;29300;43.560;1.294;2022-10-13T06:23:02;14.00;99.90
43695;DHT22;29300;43.560;1.294;2022-10-13T06:25:28;14.00;99.90
43695;DHT22;29300;43.560;1.294;2022-10-13T06:27:55;14.00;99.90
43695;DHT22;29300;43.560;1.294;2022-10-13T06:30:21;14.00;99.90
43695;DHT22;29300;43.560;1.294;2022-10-13T06:32:47;14.10;99.90
43695;DHT22;29300;43.560;1.294;2022-10-13T06:35:13;14.10;99.90
43695;DHT22;29300;43.560;1.294;2022-10-13T06:37:39;14.10;99.90
43695;DHT22;29300;43.560;1.294;2022-10-13T06:40:05;14.10;99.90
43695;DHT22;29300;43.560;1.294;2022-10-13T06:42:30;14.10;99.90
43695;DHT22;29300;43.560;1.294;2022-10-13T06:44:58;14.20;99.90
43695;DHT22;29300;43.560;1.294;2022-10-13T06:47:24;14.10;99.90
43695;DHT22;29300;43.560;1.294;2022-10-13T06:49:49;14.10;99.90
43695;DHT22;29300;43.560;1.294;2022-10-13T06:52:15;14.10;99.90
43695;DHT22;29300;43.560;1.294;2022-10-13T06:54:41;14.10;99.90
43695;DHT22;29300;43.560;1.294;2022-10-13T06:57:06;14.10;99.90
43695;DHT22;29300;43.560;1.294;2022-10-13T06:59:32;14.00;99.90
43695;DHT22;29300;43.560;1.294;2022-10-13T07:01:58;14.10;99.90
43695;DHT22;29300;43.560;1.294;2022-10-13T07:04:23;14.20;99.90
43695;DHT22;29300;43.560;1.294;2022-10-13T07:06:50;14.40;99.90
43695;DHT22;29300;43.560;1.294;2022-10-13T07:09:16;14.40;99.90
43695;DHT22;29300;43.560;1.294;2022-10-13T07:11:46;14.50;99.90
43695;DHT22;29300;43.560;1.294;2022-10-13T07:14:12;14.60;99.90
43695;DHT22;29300;43.560;1.294;2022-10-13T07:16:38;14.60;99.90
43695;DHT22;29300;43.560;1.294;2022-10-13T07:19:04;14.70;99.90
43695;DHT22;29300;43.560;1.294;2022-10-13T07:21:30;14.60;99.90
43695;DHT22;29300;43.560;1.294;2022-10-13T07:23:55;14.90;99.90
43695;DHT22;29300;43.560;1.294;2022-10-13T07:26:21;15.40;99.90
43695;DHT22;29300;43.560;1.294;2022-10-13T07:28:47;17.00;99.90
43695;DHT22;29300;43.560;1.294;2022-10-13T07:31:18;17.40;99.90
43695;DHT22;29300;43.560;1.294;2022-10-13T07:33:46;17.60;99.90
43695;DHT22;29300;43.560;1.294;2022-10-13T07:36:12;17.20;99.90
43695;DHT22;29300;43.560;1.294;2022-10-13T07:38:38;17.00;99.90
43695;DHT22;29300;43.560;1.294;2022-10-13T07:41:06;16.80;99.90
43695;DHT22;29300;43.560;1.294;2022-10-13T07:43:33;16.40;99.90
43695;DHT22;29300;43.560;1.294;2022-10-13T07:45:59;16.40;99.90
43695;DHT22;29300;43.560;1.294;2022-10-13T07:48:25;16.40;99.90
43695;DHT22;29300;43.560;1.294;2022-10-13T07:50:51;16.30;99.90
43695;DHT22;29300;43.560;1.294;2022-10-13T07:53:17;16.30;99.90
43695;DHT22;29300;43.560;1.294;2022-10-13T07:55:43;16.50;99.90
43695;DHT22;29300;43.560;1.294;2022-10-13T07:58:08;16.90;99.90
43695;DHT22;29300;43.560;1.294;2022-10-13T08:00:35;17.90;99.90
43695;DHT22;29300;43.560;1.294;2022-10-13T08:03:01;17.50;99.90
43695;DHT22;29300;43.560;1.294;2022-10-13T08:05:26;17.10;99.90
43695;DHT22;29300;43.560;1.294;2022-10-13T08:07:52;17.20;99.90
43695;DHT22;29300;43.560;1.294;2022-10-13T08:10:18;18.70;99.90
43695;DHT22;29300;43.560;1.294;2022-10-13T08:12:45;20.80;99.90
43695;DHT22;29300;43.560;1.294;2022-10-13T08:15:11;20.30;99.90
43695;DHT22;29300;43.560;1.294;2022-10-13T08:17:36;19.30;99.90
43695;DHT22;29300;43.560;1.294;2022-10-13T08:20:03;18.60;99.90
43695;DHT22;29300;43.560;1.294;2022-10-13T08:22:30;18.30;99.90
43695;DHT22;29300;43.560;1.294;2022-10-13T08:24:55;18.30;99.90
43695;DHT22;29300;43.560;1.294;2022-10-13T08:27:23;18.20;99.90
43695;DHT22;29300;43.560;1.294;2022-10-13T08:29:49;19.00;99.90
43695;DHT22;29300;43.560;1.294;2022-10-13T08:32:15;18.60;99.90
43695;DHT22;29300;43.560;1.294;2022-10-13T08:34:41;20.10;99.90
43695;DHT22;29300;43.560;1.294;2022-10-13T08:37:13;20.70;99.90
43695;DHT22;29300;43.560;1.294;2022-10-13T08:39:39;20.20;99.90
43695;DHT22;29300;43.560;1.294;2022-10-13T08:42:13;21.20;99.90
43695;DHT22;29300;43.560;1.294;2022-10-13T08:44:41;21.80;99.90
43695;DHT22;29300;43.560;1.294;2022-10-13T08:49:53;19.60;99.90
43695;DHT22;29300;43.560;1.294;2022-10-13T08:52:22;19.40;99.90
43695;DHT22;29300;43.560;1.294;2022-10-13T08:54:49;19.50;99.90
43695;DHT22;29300;43.560;1.294;2022-10-13T08:57:16;19.40;99.90
43695;DHT22;29300;43.560;1.294;2022-10-13T08:59:42;19.30;99.90
43695;DHT22;29300;43.560;1.294;2022-10-13T09:02:28;19.40;99.90
43695;DHT22;29300;43.560;1.294;2022-10-13T09:04:56;19.80;99.90
43695;DHT22;29300;43.560;1.294;2022-10-13T09:07:28;19.90;99.90
43695;DHT22;29300;43.560;1.294;2022-10-13T09:09:55;19.90;99.90
43695;DHT22;29300;43.560;1.294;2022-10-13T09:12:22;19.80;99.90
43695;DHT22;29300;43.560;1.294;2022-10-13T09:15:05;20.00;99.90
43695;DHT22;29300;43.560;1.294;2022-10-13T09:17:34;19.70;99.90
43695;DHT22;29300;43.560;1.294;2022-10-13T09:20:04;19.20;99.90
43695;DHT22;29300;43.560;1.294;2022-10-13T09:22:35;19.40;99.90
43695;DHT22;29300;43.560;1.294;2022-10-13T09:30:34;19.00;99.90
43695;DHT22;29300;43.560;1.294;2022-10-13T09:33:21;19.20;99.90
43695;DHT22;29300;43.560;1.294;2022-10-13T09:38:27;19.80;99.90
43695;DHT22;29300;43.560;1.294;2022-10-13T09:40:58;20.00;99.90
43695;DHT22;29300;43.560;1.294;2022-10-13T09:43:27;20.00;99.90
43695;DHT22;29300;43.560;1.294;2022-10-13T09:45:53;19.90;99.90
43695;DHT22;29300;43.560;1.294;2022-10-13T09:48:25;19.80;99.90
43695;DHT22;29300;43.560;1.294;2022-10-13T09:50:54;19.90;99.90
43695;DHT22;29300;43.560;1.294;2022-10-13T09:53:38;20.00;99.90
43695;DHT22;29300;43.560;1.294;2022-10-13T09:56:28;19.90;99.90
43695;DHT22;29300;43.560;1.294;2022-10-13T09:59:29;20.00;99.90
43695;DHT22;29300;43.560;1.294;2022-10-13T10:02:01;20.00;99.90
43695;DHT22;29300;43.560;1.294;2022-10-13T10:04:35;20.00;99.90
43695;DHT22;29300;43.560;1.294;2022-10-13T10:07:15;19.90;99.90
43695;DHT22;29300;43.560;1.294;2022-10-13T10:09:48;20.00;99.90
43695;DHT22;29300;43.560;1.294;2022-10-13T10:12:18;20.00;99.90
43695;DHT22;29300;43.560;1.294;2022-10-13T10:14:45;19.70;99.90
43695;DHT22;29300;43.560;1.294;2022-10-13T10:18:05;19.60;99.90
43695;DHT22;29300;43.560;1.294;2022-10-13T10:25:50;20.30;99.90
43695;DHT22;29300;43.560;1.294;2022-10-13T10:31:25;20.20;99.90
43695;DHT22;29300;43.560;1.294;2022-10-13T10:39:48;19.80;99.90
43695;DHT22;29300;43.560;1.294;2022-10-13T10:42:50;19.80;99.90
43695;DHT22;29300;43.560;1.294;2022-10-13T10:45:16;20.00;99.90
43695;DHT22;29300;43.560;1.294;2022-10-13T10:47:45;20.30;99.90
43695;DHT22;29300;43.560;1.294;2022-10-13T10:50:14;20.60;99.90
43695;DHT22;29300;43.560;1.294;2022-10-13T10:53:08;20.80;99.90
43695;DHT22;29300;43.560;1.294;2022-10-13T10:58:40;21.20;99.90
43695;DHT22;29300;43.560;1.294;2022-10-13T11:08:45;21.10;99.90
43695;DHT22;29300;43.560;1.294;2022-10-13T11:14:00;21.20;99.90
43695;DHT22;29300;43.560;1.294;2022-10-13T11:19:38;20.90;99.90
43695;DHT22;29300;43.560;1.294;2022-10-13T11:35:16;20.80;99.90
43695;DHT22;29300;43.560;1.294;2022-10-13T11:51:51;21.40;99.90
43695;DHT22;29300;43.560;1.294;2022-10-13T11:56:52;21.90;99.90
43695;DHT22;29300;43.560;1.294;2022-10-13T11:59:29;22.00;99.90
43695;DHT22;29300;43.560;1.294;2022-10-13T12:04:38;21.90;99.90
43695;DHT22;29300;43.560;1.294;2022-10-13T12:07:08;22.10;99.90
43695;DHT22;29300;43.560;1.294;2022-10-13T12:09:45;22.10;99.90
43695;DHT22;29300;43.560;1.294;2022-10-13T12:12:15;22.30;99.90
43695;DHT22;29300;43.560;1.294;2022-10-13T12:14:44;22.10;99.90
43695;DHT22;29300;43.560;1.294;2022-10-13T12:17:22;22.00;99.90
43695;DHT22;29300;43.560;1.294;2022-10-13T12:19:48;22.10;99.90
43695;DHT22;29300;43.560;1.294;2022-10-13T12:22:14;22.10;99.90
43695;DHT22;29300;43.560;1.294;2022-10-13T12:24:40;22.10;99.90
43695;DHT22;29300;43.560;1.294;2022-10-13T12:27:10;22.20;99.90
43695;DHT22;29300;43.560;1.294;2022-10-13T12:29:41;22.50;99.90
43695;DHT22;29300;43.560;1.294;2022-10-13T12:32:28;22.70;99.90
43695;DHT22;29300;43.560;1.294;2022-10-13T12:34:55;22.60;99.90
43695;DHT22;29300;43.560;1.294;2022-10-13T12:37:31;22.70;99.90
43695;DHT22;29300;43.560;1.294;2022-10-13T12:39:59;22.70;99.90
43695;DHT22;29300;43.560;1.294;2022-10-13T12:42:35;22.80;99.90
43695;DHT22;29300;43.560;1.294;2022-10-13T12:45:02;22.80;99.90
43695;DHT22;29300;43.560;1.294;2022-10-13T12:52:59;22.70;99.90
43695;DHT22;29300;43.560;1.294;2022-10-13T12:55:28;22.80;99.90
43695;DHT22;29300;43.560;1.294;2022-10-13T12:57:55;22.80;99.90
43695;DHT22;29300;43.560;1.294;2022-10-13T13:00:22;22.80;99.90
43695;DHT22;29300;43.560;1.294;2022-10-13T13:03:00;22.90;99.90
43695;DHT22;29300;43.560;1.294;2022-10-13T13:07:55;22.70;99.90
43695;DHT22;29300;43.560;1.294;2022-10-13T13:10:21;22.80;99.90
43695;DHT22;29300;43.560;1.294;2022-10-13T13:12:48;22.90;99.90
43695;DHT22;29300;43.560;1.294;2022-10-13T13:17:53;22.90;99.90
43695;DHT22;29300;43.560;1.294;2022-10-13T13:20:28;22.80;99.40
43695;DHT22;29300;43.560;1.294;2022-10-13T13:22:54;22.90;99.90
43695;DHT22;29300;43.560;1.294;2022-10-13T13:25:20;22.90;99.90
43695;DHT22;29300;43.560;1.294;2022-10-13T13:27:46;23.00;99.90
43695;DHT22;29300;43.560;1.294;2022-10-13T13:30:17;23.00;99.20
43695;DHT22;29300;43.560;1.294;2022-10-13T13:32:43;23.00;99.90
43695;DHT22;29300;43.560;1.294;2022-10-13T13:35:09;23.00;99.90
43695;DHT22;29300;43.560;1.294;2022-10-13T13:37:40;23.00;99.50
43695;DHT22;29300;43.560;1.294;2022-10-13T13:40:14;22.80;99.90
43695;DHT22;29300;43.560;1.294;2022-10-13T13:42:40;22.70;99.70
43695;DHT22;29300;43.560;1.294;2022-10-13T13:45:06;22.60;99.90
43695;DHT22;29300;43.560;1.294;2022-10-13T13:47:32;22.60;99.90
43695;DHT22;29300;43.560;1.294;2022-10-13T13:49:58;22.60;99.90
43695;DHT22;29300;43.560;1.294;2022-10-13T13:52:24;22.50;99.90
43695;DHT22;29300;43.560;1.294;2022-10-13T13:54:50;22.40;99.90
43695;DHT22;29300;43.560;1.294;2022-10-13T13:57:17;22.30;99.90
43695;DHT22;29300;43.560;1.294;2022-10-13T13:59:43;22.30;99.90
43695;DHT22;29300;43.560;1.294;2022-10-13T14:02:18;22.30;99.90
43695;DHT22;29300;43.560;1.294;2022-10-13T14:04:45;22.30;99.90
43695;DHT22;29300;43.560;1.294;2022-10-13T14:07:11;22.20;99.90
43695;DHT22;29300;43.560;1.294;2022-10-13T14:09:37;22.20;99.90
43695;DHT22;29300;43.560;1.294;2022-10-13T14:12:03;22.20;99.90
43695;DHT22;29300;43.560;1.294;2022-10-13T14:14:30;22.30;99.90
43695;DHT22;29300;43.560;1.294;2022-10-13T14:16:56;22.30;99.90
43695;DHT22;29300;43.560;1.294;2022-10-13T14:19:22;22.30;99.90
43695;DHT22;29300;43.560;1.294;2022-10-13T14:21:48;22.40;99.90
43695;DHT22;29300;43.560;1.294;2022-10-13T14:24:14;22.20;99.90
43695;DHT22;29300;43.560;1.294;2022-10-13T14:26:39;22.20;99.90
43695;DHT22;29300;43.560;1.294;2022-10-13T14:29:05;22.30;99.90
43695;DHT22;29300;43.560;1.294;2022-10-13T14:31:31;22.20;99.90
43695;DHT22;29300;43.560;1.294;2022-10-13T14:33:57;22.20;99.90
43695;DHT22;29300;43.560;1.294;2022-10-13T14:36:23;22.30;99.90
43695;DHT22;29300;43.560;1.294;2022-10-13T14:38:49;22.30;99.90
43695;DHT22;29300;43.560;1.294;2022-10-13T14:41:16;22.40;99.90
43695;DHT22;29300;43.560;1.294;2022-10-13T14:43:42;22.40;99.90
43695;DHT22;29300;43.560;1.294;2022-10-13T14:46:08;22.40;99.90
43695;DHT22;29300;43.560;1.294;2022-10-13T14:48:35;22.40;99.90
43695;DHT22;29300;43.560;1.294;2022-10-13T14:51:05;22.40;99.90
43695;DHT22;29300;43.560;1.294;2022-10-13T14:53:34;22.40;99.90
43695;DHT22;29300;43.560;1.294;2022-10-13T14:56:00;22.40;99.90
43695;DHT22;29300;43.560;1.294;2022-10-13T14:58:26;22.40;99.90
43695;DHT22;29300;43.560;1.294;2022-10-13T15:00:52;22.40;99.90
43695;DHT22;29300;43.560;1.294;2022-10-13T15:03:20;22.40;99.90
43695;DHT22;29300;43.560;1.294;2022-10-13T15:05:46;22.30;99.90
43695;DHT22;29300;43.560;1.294;2022-10-13T15:08:12;22.30;99.90
43695;DHT22;29300;43.560;1.294;2022-10-13T15:10:38;22.30;99.90
43695;DHT22;29300;43.560;1.294;2022-10-13T15:13:03;22.30;99.90
43695;DHT22;29300;43.560;1.294;2022-10-13T15:15:29;22.20;99.90
43695;DHT22;29300;43.560;1.294;2022-10-13T15:17:55;22.10;99.90
43695;DHT22;29300;43.560;1.294;2022-10-13T15:20:20;22.00;99.90
43695;DHT22;29300;43.560;1.294;2022-10-13T15:22:47;22.00;99.90
43695;DHT22;29300;43.560;1.294;2022-10-13T15:25:13;22.00;99.90
43695;DHT22;29300;43.560;1.294;2022-10-13T15:27:39;22.00;99.90
43695;DHT22;29300;43.560;1.294;2022-10-13T15:30:08;22.00;99.90
43695;DHT22;29300;43.560;1.294;2022-10-13T15:32:34;22.00;99.90
43695;DHT22;29300;43.560;1.294;2022-10-13T15:35:00;21.90;99.90
43695;DHT22;29300;43.560;1.294;2022-10-13T15:37:26;21.90;99.90
43695;DHT22;29300;43.560;1.294;2022-10-13T15:39:51;21.80;99.90
43695;DHT22;29300;43.560;1.294;2022-10-13T15:42:17;21.80;99.90
43695;DHT22;29300;43.560;1.294;2022-10-13T15:44:43;21.90;99.90
43695;DHT22;29300;43.560;1.294;2022-10-13T15:47:08;21.80;99.90
43695;DHT22;29300;43.560;1.294;2022-10-13T15:49:35;21.80;99.90
43695;DHT22;29300;43.560;1.294;2022-10-13T15:52:04;21.80;99.90
43695;DHT22;29300;43.560;1.294;2022-10-13T15:54:29;21.80;99.90
43695;DHT22;29300;43.560;1.294;2022-10-13T15:56:55;21.80;99.90
43695;DHT22;29300;43.560;1.294;2022-10-13T15:59:21;21.80;99.90
43695;DHT22;29300;43.560;1.294;2022-10-13T16:01:46;21.70;99.90
43695;DHT22;29300;43.560;1.294;2022-10-13T16:04:12;21.70;99.90
43695;DHT22;29300;43.560;1.294;2022-10-13T16:06:38;21.70;99.90
43695;DHT22;29300;43.560;1.294;2022-10-13T16:09:03;21.60;99.90
43695;DHT22;29300;43.560;1.294;2022-10-13T16:11:29;21.60;99.90
43695;DHT22;29300;43.560;1.294;2022-10-13T16:13:55;21.50;99.90
43695;DHT22;29300;43.560;1.294;2022-10-13T16:16:20;21.50;99.90
43695;DHT22;29300;43.560;1.294;2022-10-13T16:18:47;21.50;99.50
43695;DHT22;29300;43.560;1.294;2022-10-13T16:21:22;21.60;99.50
43695;DHT22;29300;43.560;1.294;2022-10-13T16:23:48;21.60;99.00
43695;DHT22;29300;43.560;1.294;2022-10-13T16:26:15;21.50;98.70
43695;DHT22;29300;43.560;1.294;2022-10-13T16:28:41;21.50;98.90
43695;DHT22;29300;43.560;1.294;2022-10-13T16:31:12;21.50;98.70
43695;DHT22;29300;43.560;1.294;2022-10-13T16:33:39;21.40;98.50
43695;DHT22;29300;43.560;1.294;2022-10-13T16:36:10;21.40;98.70
43695;DHT22;29300;43.560;1.294;2022-10-13T16:38:36;21.30;98.70
43695;DHT22;29300;43.560;1.294;2022-10-13T16:41:06;21.40;99.00
43695;DHT22;29300;43.560;1.294;2022-10-13T16:43:32;21.30;99.10
43695;DHT22;29300;43.560;1.294;2022-10-13T16:46:00;21.20;99.40
43695;DHT22;29300;43.560;1.294;2022-10-13T16:48:26;21.20;99.40
43695;DHT22;29300;43.560;1.294;2022-10-13T16:50:52;21.20;99.40
43695;DHT22;29300;43.560;1.294;2022-10-13T16:53:18;21.10;99.50
43695;DHT22;29300;43.560;1.294;2022-10-13T16:55:44;21.10;99.80
43695;DHT22;29300;43.560;1.294;2022-10-13T16:58:09;21.10;99.80
43695;DHT22;29300;43.560;1.294;2022-10-13T17:00:36;21.00;99.90
43695;DHT22;29300;43.560;1.294;2022-10-13T17:03:03;21.00;99.80
43695;DHT22;29300;43.560;1.294;2022-10-13T17:05:29;21.00;99.90
43695;DHT22;29300;43.560;1.294;2022-10-13T17:07:54;20.90;99.90
43695;DHT22;29300;43.560;1.294;2022-10-13T17:10:20;20.90;99.90
43695;DHT22;29300;43.560;1.294;2022-10-13T17:12:46;20.90;99.90
43695;DHT22;29300;43.560;1.294;2022-10-13T17:15:13;20.80;99.90
43695;DHT22;29300;43.560;1.294;2022-10-13T17:17:39;20.80;99.90
43695;DHT22;29300;43.560;1.294;2022-10-13T17:20:05;20.70;99.90
43695;DHT22;29300;43.560;1.294;2022-10-13T17:22:32;20.70;99.90